Time;durP1;ratioP1;P1;durP2;ratioP2;P2;SDS_P1;SDS_P2;PMS_P1;PMS_P2;Temp;Humidity;BMP_temperature;BMP_pressure;BME280_temperature;BME280_humidity;BME280_pressure;Samples;Min_cycle;Max_cycle;Signal;HPM_P1;HPM_P2
2023/07/23 00:01:02;;;;;;;0.00;0.00;;;;;;;15.03;nan;99143.63;4932180;29;20019;-80
2023/07/23 00:03:30;;;;;;;0.00;0.00;;;;;;;14.98;nan;99133.59;4937293;29;20026;-79
2023/07/23 00:05:55;;;;;;;0.00;0.00;;;;;;;15.05;nan;99140.53;4937537;29;20102;-80
2023/07/23 00:08:21;;;;;;;0.00;0.00;;;;;;;15.00;nan;99125.81;4935441;29;20039;-79
2023/07/23 00:10:46;;;;;;;0.00;0.00;;;;;;;14.99;nan;99112.38;4935790;29;20043;-80
2023/07/23 00:13:11;;;;;;;0.00;0.00;;;;;;;15.06;nan;99133.91;4943478;28;20039;-79
2023/07/23 00:15:44;;;;;;;0.00;0.00;;;;;;;15.05;nan;99138.59;4933902;28;20039;-80
2023/07/23 00:18:10;;;;;;;0.00;0.00;;;;;;;14.99;nan;99113.19;4915479;29;20046;-77
2023/07/23 00:20:35;;;;;;;0.00;0.00;;;;;;;15.01;nan;99123.88;4929706;29;20043;-79
2023/07/23 00:23:00;;;;;;;0.00;0.00;;;;;;;15.02;nan;99114.47;4937370;29;20023;-79
2023/07/23 00:25:28;;;;;;;0.00;0.00;;;;;;;15.09;nan;99112.03;4934294;29;20027;-79
2023/07/23 00:27:54;;;;;;;0.00;0.00;;;;;;;15.05;nan;99115.78;4920567;29;20031;-80
2023/07/23 00:30:21;;;;;;;0.00;0.00;;;;;;;15.11;nan;99111.69;4956054;28;20026;-78
2023/07/23 00:32:54;;;;;;;0.00;0.00;;;;;;;15.07;nan;99095.03;4936345;29;20033;-79
2023/07/23 00:35:20;;;;;;;0.00;0.00;;;;;;;15.12;nan;99100.34;4934425;29;20023;-77
2023/07/23 00:37:48;;;;;;;0.00;0.00;;;;;;;15.10;nan;99091.63;4920416;29;20039;-78
2023/07/23 00:40:13;;;;;;;0.00;0.00;;;;;;;15.18;nan;99095.47;4926811;29;20055;-80
2023/07/23 00:42:41;;;;;;;0.00;0.00;;;;;;;15.19;nan;99108.91;4911826;29;20029;-79
2023/07/23 00:45:09;;;;;;;0.00;0.00;;;;;;;15.22;nan;99092.88;4916037;29;20024;-79
2023/07/23 00:47:35;;;;;;;0.00;0.00;;;;;;;15.26;nan;99104.84;4910823;29;20687;-80
2023/07/23 00:50:05;;;;;;;0.00;0.00;;;;;;;15.24;nan;99096.09;4899570;29;20038;-80
2023/07/23 00:52:31;;;;;;;0.00;0.00;;;;;;;15.23;nan;99100.00;4899286;29;20095;-78
2023/07/23 00:54:56;;;;;;;0.00;0.00;;;;;;;15.17;nan;99075.41;4912382;29;20024;-79
2023/07/23 00:57:24;;;;;;;0.00;0.00;;;;;;;15.19;nan;99078.63;4898242;29;20071;-79
2023/07/23 00:59:49;;;;;;;0.00;0.00;;;;;;;15.28;nan;99083.31;4901972;29;20439;-79
2023/07/23 01:02:15;;;;;;;0.00;0.00;;;;;;;15.23;nan;99075.22;4912378;29;20032;-79
2023/07/23 01:04:40;;;;;;;0.00;0.00;;;;;;;15.35;nan;99086.34;4925222;29;20032;-79
2023/07/23 01:07:07;;;;;;;0.00;0.00;;;;;;;15.33;nan;99077.59;4894991;29;20036;-77
2023/07/23 01:09:34;;;;;;;0.00;0.00;;;;;;;15.35;nan;99091.84;4907002;29;20032;-80
2023/07/23 01:12:05;;;;;;;0.00;0.00;;;;;;;15.35;nan;99070.63;4916466;29;20040;-80
2023/07/23 01:14:38;;;;;;;0.00;0.00;;;;;;;15.30;nan;99061.75;4902695;29;20033;-78
2023/07/23 01:17:04;;;;;;;0.00;0.00;;;;;;;15.32;nan;99059.47;4921415;29;20032;-79
2023/07/23 01:19:29;;;;;;;0.00;0.00;;;;;;;15.33;nan;99061.06;4912432;29;20409;-79
2023/07/23 01:22:00;;;;;;;0.00;0.00;;;;;;;15.32;nan;99053.97;4884529;29;20028;-78
2023/07/23 01:24:25;;;;;;;0.00;0.00;;;;;;;15.30;nan;99045.22;4911872;29;20024;-79
2023/07/23 01:26:55;;;;;;;0.00;0.00;;;;;;;15.28;nan;99037.28;4923921;29;20036;-79
2023/07/23 01:29:30;;;;;;;0.00;0.00;;;;;;;15.41;nan;99063.00;4920732;29;20503;-79
2023/07/23 01:31:56;;;;;;;0.00;0.00;;;;;;;15.30;nan;99045.22;4898666;29;20176;-78
2023/07/23 01:34:32;;;;;;;0.00;0.00;;;;;;;15.37;nan;99051.00;4915573;29;20115;-77
2023/07/23 01:36:58;;;;;;;0.00;0.00;;;;;;;15.40;nan;99044.84;4920487;29;20118;-79
2023/07/23 01:39:32;;;;;;;0.00;0.00;;;;;;;15.36;nan;99041.94;4929380;29;20067;-78
2023/07/23 01:41:58;;;;;;;0.00;0.00;;;;;;;15.42;nan;99048.09;4930873;29;20114;-78
2023/07/23 01:44:24;;;;;;;0.00;0.00;;;;;;;15.45;nan;99054.84;4935240;29;20507;-78
2023/07/23 01:46:50;;;;;;;0.00;0.00;;;;;;;15.46;nan;99048.22;4927120;29;20500;-78
2023/07/23 01:49:15;;;;;;;0.00;0.00;;;;;;;15.44;nan;99040.28;4928718;29;20066;-79
2023/07/23 01:51:50;;;;;;;0.00;0.00;;;;;;;15.48;nan;99051.47;4918380;29;20904;-79
2023/07/23 01:54:15;;;;;;;0.00;0.00;;;;;;;15.50;nan;99049.16;4917350;29;20035;-80
2023/07/23 01:56:45;;;;;;;0.00;0.00;;;;;;;15.48;nan;99046.75;4930401;29;20042;-80
2023/07/23 02:00:00;;;;;;;0.00;0.00;;;;;;;15.53;nan;99043.78;4933166;29;20093;-81
2023/07/23 02:02:26;;;;;;;0.00;0.00;;;;;;;15.50;nan;99038.94;4924814;29;20054;-80
2023/07/23 02:04:54;;;;;;;0.00;0.00;;;;;;;15.45;nan;99041.09;4934053;29;20031;-79
2023/07/23 02:07:21;;;;;;;0.00;0.00;;;;;;;15.43;nan;99043.38;4946232;29;20110;-78
2023/07/23 02:09:51;;;;;;;0.00;0.00;;;;;;;15.40;nan;99042.09;4926966;29;20039;-79
2023/07/23 02:12:17;;;;;;;0.00;0.00;;;;;;;15.27;nan;99034.88;4933389;29;20039;-79
2023/07/23 02:14:42;;;;;;;0.00;0.00;;;;;;;15.24;nan;99041.03;4941788;29;20040;-78
2023/07/23 02:17:10;;;;;;;0.00;0.00;;;;;;;15.24;nan;99041.03;4937774;29;20023;-79
2023/07/23 02:19:37;;;;;;;0.00;0.00;;;;;;;15.22;nan;99037.81;4916848;29;20379;-79
2023/07/23 02:22:05;;;;;;;0.00;0.00;;;;;;;15.20;nan;99040.91;4947374;28;20462;-78
2023/07/23 02:24:30;;;;;;;0.00;0.00;;;;;;;15.14;nan;99043.03;4936113;28;20020;-80
2023/07/23 02:27:00;;;;;;;0.00;0.00;;;;;;;15.06;nan;99032.84;4905496;29;20643;-79
2023/07/23 02:29:35;;;;;;;0.00;0.00;;;;;;;15.11;nan;99043.69;4913919;29;20038;-80
2023/07/23 02:32:00;;;;;;;0.00;0.00;;;;;;;15.10;nan;99028.31;4934511;29;20136;-80
2023/07/23 02:34:26;;;;;;;0.00;0.00;;;;;;;15.14;nan;99032.00;4930941;29;20102;-79
2023/07/23 02:37:01;;;;;;;0.00;0.00;;;;;;;15.12;nan;99027.97;4935616;29;20027;-79
2023/07/23 02:39:34;;;;;;;0.00;0.00;;;;;;;15.27;nan;99051.38;4922261;29;20023;-78
2023/07/23 02:41:59;;;;;;;0.00;0.00;;;;;;;15.30;nan;99051.56;4932545;28;20407;-79
2023/07/23 02:44:25;;;;;;;0.00;0.00;;;;;;;15.29;nan;99049.94;4943757;28;20035;-79
2023/07/23 02:46:51;;;;;;;0.00;0.00;;;;;;;15.28;nan;99042.78;4938807;29;20024;-78
2023/07/23 02:49:16;;;;;;;0.00;0.00;;;;;;;15.33;nan;99088.59;4931399;29;20032;-80
2023/07/23 02:51:49;;;;;;;0.00;0.00;;;;;;;15.31;nan;99019.28;4934997;29;20473;-79
2023/07/23 02:54:14;;;;;;;0.00;0.00;;;;;;;15.32;nan;99052.00;4930941;29;20043;-78
2023/07/23 02:56:40;;;;;;;0.00;0.00;;;;;;;;;;4918520;29;20778;-80
2023/07/23 02:59:08;;;;;;;0.00;0.00;;;;;;;15.28;nan;99037.28;4934292;29;20034;-79
2023/07/23 03:01:33;;;;;;;0.00;0.00;;;;;;;15.30;nan;99023.19;4957514;28;20028;-79
2023/07/23 03:03:59;;;;;;;0.00;0.00;;;;;;;;;;4928312;29;20039;-80
2023/07/23 03:06:24;;;;;;;0.00;0.00;;;;;;;15.26;nan;99023.06;4916539;29;20035;-79
2023/07/23 03:08:49;;;;;;;0.00;0.00;;;;;;;;;;4920005;29;20430;-78
2023/07/23 03:11:15;;;;;;;0.00;0.00;;;;;;;15.20;nan;99032.66;4924557;29;20028;-79
2023/07/23 03:13:42;;;;;;;0.00;0.00;;;;;;;15.18;nan;99016.44;4915233;29;20123;-79
2023/07/23 03:16:08;;;;;;;0.00;0.00;;;;;;;15.12;nan;99023.25;4918547;29;20042;-79
2023/07/23 03:18:33;;;;;;;0.00;0.00;;;;;;;15.17;nan;99031.34;4943405;29;20032;-78
2023/07/23 03:20:58;;;;;;;0.00;0.00;;;;;;;15.09;nan;99048.69;4921704;29;20038;-78
2023/07/23 03:23:31;;;;;;;0.00;0.00;;;;;;;14.89;nan;99043.91;4946845;28;20027;-79
2023/07/23 03:25:56;;;;;;;0.00;0.00;;;;;;;;;;4934067;29;20043;-79
2023/07/23 03:28:26;;;;;;;0.00;0.00;;;;;;;;;;4930147;29;20035;-79
2023/07/23 03:30:54;;;;;;;0.00;0.00;;;;;;;;;;4933863;29;20038;-79
2023/07/23 03:33:20;;;;;;;0.00;0.00;;;;;;;14.71;nan;99041.22;4925660;29;20098;-79
2023/07/23 03:35:47;;;;;;;0.00;0.00;;;;;;;;;;4925301;29;20031;-79
2023/07/23 03:38:13;;;;;;;0.00;0.00;;;;;;;14.88;nan;99045.03;4913545;29;20398;-79
2023/07/23 03:40:39;;;;;;;0.00;0.00;;;;;;;14.93;nan;99031.91;4917615;29;20064;-78
2023/07/23 03:43:05;;;;;;;0.00;0.00;;;;;;;14.26;nan;98915.91;4938351;29;20023;-79
2023/07/23 03:45:30;;;;;;;0.00;0.00;;;;;;;15.07;nan;99051.00;4936559;29;20033;-77
2023/07/23 03:47:56;;;;;;;0.00;0.00;;;;;;;15.03;nan;99036.25;4953818;29;20394;-78
2023/07/23 03:50:21;;;;;;;0.00;0.00;;;;;;;;;;4947210;28;20023;-79
2023/07/23 03:52:46;;;;;;;0.00;0.00;;;;;;;14.98;nan;99025.41;4933111;29;20042;-78
2023/07/23 03:55:14;;;;;;;0.00;0.00;;;;;;;;;;4918303;29;20398;-79
2023/07/23 03:57:47;;;;;;;0.00;0.00;;;;;;;14.93;nan;99042.13;4935675;29;20478;-80
2023/07/23 04:00:13;;;;;;;0.00;0.00;;;;;;;14.89;nan;99033.72;4929453;29;20070;-81
2023/07/23 04:02:41;;;;;;;0.00;0.00;;;;;;;14.88;nan;99023.03;4936225;29;20398;-79
2023/07/23 04:05:09;;;;;;;0.00;0.00;;;;;;;;;;4913515;29;20130;-79
2023/07/23 04:07:34;;;;;;;0.00;0.00;;;;;;;14.95;nan;99051.69;4914134;29;20027;-79
2023/07/23 04:10:01;;;;;;;0.00;0.00;;;;;;;14.93;nan;99042.13;4937102;28;20513;-79
2023/07/23 04:12:27;;;;;;;0.00;0.00;;;;;;;14.87;nan;99022.22;4901032;29;20118;-79
2023/07/23 04:14:55;;;;;;;0.00;0.00;;;;;;;14.66;nan;99022.94;4913463;29;20027;-79
2023/07/23 04:17:20;;;;;;;0.00;0.00;;;;;;;;;;4919922;29;20027;-80
2023/07/23 04:19:48;;;;;;;0.00;0.00;;;;;;;14.46;nan;99040.91;4934508;29;20053;-80
2023/07/23 04:22:13;;;;;;;0.00;0.00;;;;;;;;;;4931912;29;20503;-78
2023/07/23 04:24:38;;;;;;;0.00;0.00;;;;;;;14.32;nan;99023.78;4928959;29;20035;-80
2023/07/23 04:27:04;;;;;;;0.00;0.00;;;;;;;14.31;nan;99016.69;4944677;29;20027;-78
2023/07/23 04:29:32;;;;;;;0.00;0.00;;;;;;;14.22;nan;99040.59;4945121;29;20630;-77
2023/07/23 04:31:57;;;;;;;0.00;0.00;;;;;;;14.14;nan;98985.28;4927775;29;20176;-79
2023/07/23 04:34:25;;;;;;;0.00;0.00;;;;;;;14.11;nan;99031.88;4909144;29;20122;-79
2023/07/23 04:36:58;;;;;;;0.00;0.00;;;;;;;;;;4920562;29;20042;-78
2023/07/23 04:39:24;;;;;;;0.00;0.00;;;;;;;14.13;nan;99057.91;4945243;28;20051;-79
2023/07/23 04:41:49;;;;;;;0.00;0.00;;;;;;;14.10;nan;99053.03;4929187;29;20458;-77
2023/07/23 04:44:14;;;;;;;0.00;0.00;;;;;;;14.00;nan;99039.63;4919124;29;20039;-79
2023/07/23 04:46:45;;;;;;;0.00;0.00;;;;;;;13.60;nan;98954.59;4930464;29;20096;-79
2023/07/23 04:49:12;;;;;;;0.00;0.00;;;;;;;14.01;nan;99055.00;4916238;28;20067;-78
2023/07/23 04:51:59;;;;;;;0.00;0.00;;;;;;;14.03;nan;99038.19;4918460;29;20028;-80
2023/07/23 04:54:27;;;;;;;0.00;0.00;;;;;;;;;;4926758;29;20042;-81
2023/07/23 04:56:52;;;;;;;0.00;0.00;;;;;;;14.18;nan;99067.13;4940581;28;20500;-80
2023/07/23 04:59:17;;;;;;;0.00;0.00;;;;;;;;;;4940213;29;20039;-79
2023/07/23 05:01:50;;;;;;;0.00;0.00;;;;;;;14.22;nan;99062.59;4928434;29;20075;-80
2023/07/23 05:04:16;;;;;;;0.00;0.00;;;;;;;14.23;nan;99055.97;4939236;28;20061;-78
2023/07/23 05:06:41;;;;;;;0.00;0.00;;;;;;;14.26;nan;99069.06;4935063;29;20101;-76
2023/07/23 05:09:09;;;;;;;0.00;0.00;;;;;;;14.26;nan;99052.56;4933303;29;20028;-76
2023/07/23 05:11:34;;;;;;;0.00;0.00;;;;;;;;;;4953419;29;20043;-79
2023/07/23 05:14:00;;;;;;;0.00;0.00;;;;;;;14.39;nan;99068.09;4931076;29;20027;-77
2023/07/23 05:16:25;;;;;;;0.00;0.00;;;;;;;14.51;nan;99080.38;4945924;29;20032;-77
2023/07/23 05:18:51;;;;;;;0.00;0.00;;;;;;;14.48;nan;99068.91;4937151;28;20036;-77
2023/07/23 05:21:16;;;;;;;0.00;0.00;;;;;;;;;;4925330;29;20024;-77
2023/07/23 05:23:49;;;;;;;0.00;0.00;;;;;;;14.80;nan;99050.25;4925643;29;20030;-80
2023/07/23 05:26:14;;;;;;;0.00;0.00;;;;;;;15.10;nan;99068.78;4944027;29;20394;-78
2023/07/23 05:28:39;;;;;;;0.00;0.00;;;;;;;;;;4926700;29;20030;-78
2023/07/23 05:31:28;;;;;;;0.00;0.00;;;;;;;15.48;nan;99068.78;4943354;28;20394;-79
2023/07/23 05:33:54;;;;;;;0.00;0.00;;;;;;;15.45;nan;99058.44;4931641;29;20027;-79
2023/07/23 05:36:32;;;;;;;;;;;;;;;;;;;;;
2023/07/23 05:39:00;;;;;;;0.00;0.00;;;;;;;;;;4947747;29;20033;-79
2023/07/23 05:41:29;;;;;;;0.00;0.00;;;;;;;15.67;nan;99070.31;4945431;29;20142;-81
2023/07/23 05:44:25;;;;;;;;;;;;;;;;;;;;;
2023/07/23 05:47:03;;;;;;;0.00;0.00;;;;;;;15.94;nan;99079.25;4940949;28;20446;-80
2023/07/23 05:49:35;;;;;;;0.00;0.00;;;;;;;15.97;nan;99073.06;4934622;29;20102;-80
2023/07/23 05:52:00;;;;;;;0.00;0.00;;;;;;;16.00;nan;99075.97;4920958;28;20036;-81
2023/07/23 05:54:54;;;;;;;0.00;0.00;;;;;;;15.99;nan;99079.88;4922754;29;20371;-80
2023/07/23 05:57:29;;;;;;;0.00;0.00;;;;;;;16.05;nan;99074.97;4941818;29;21272;-80
2023/07/23 06:03:42;;;;;;;;;;;;;;;;;;;;;
2023/07/23 06:07:08;;;;;;;;;;;;;;;;;;;;;
2023/07/23 06:10:02;;;;;;;0.00;0.00;;;;;;;16.55;nan;99087.84;4938141;29;20112;-81
2023/07/23 06:12:58;;;;;;;0.00;0.00;;;;;;;16.48;nan;99098.63;4917936;29;20024;-78
2023/07/23 06:15:37;;;;;;;0.00;0.00;;;;;;;15.40;nan;98863.06;4933907;28;20143;-79
2023/07/23 06:18:10;;;;;;;0.00;0.00;;;;;;;;;;4922239;29;20035;-78
2023/07/23 06:20:51;;;;;;;;;;;;;;;;;;;;;
2023/07/23 06:23:27;;;;;;;0.00;0.00;;;;;;;16.40;nan;99092.03;4931288;29;20031;-78
2023/07/23 06:25:58;;;;;;;0.00;0.00;;;;;;;16.48;nan;99082.06;4931985;29;20027;-78
2023/07/23 06:31:29;;;;;;;0.00;0.00;;;;;;;;;;4935211;29;20051;-79
2023/07/23 06:33:55;;;;;;;0.00;0.00;;;;;;;16.85;nan;99084.97;4945050;29;21106;-79
2023/07/23 06:36:47;;;;;;;;;;;;;;;;;;;;;
2023/07/23 06:39:19;;;;;;;0.00;0.00;;;;;;;16.96;nan;99068.00;4947685;29;20037;-80
2023/07/23 06:42:40;;;;;;;;;;;;;;;;;;;;;
2023/07/23 06:45:07;;;;;;;0.00;0.00;;;;;;;17.16;nan;99104.97;4941678;29;20057;-79
2023/07/23 06:47:32;;;;;;;0.00;0.00;;;;;;;;;;4933458;29;20449;-78
2023/07/23 06:49:59;;;;;;;0.00;0.00;;;;;;;17.21;nan;99135.94;4941092;29;20126;-78
2023/07/23 06:52:33;;;;;;;0.00;0.00;;;;;;;17.25;nan;99103.72;4947836;29;20038;-77
2023/07/23 06:55:21;;;;;;;0.00;0.00;;;;;;;17.36;nan;99136.41;4922550;29;20032;-79
2023/07/23 06:57:59;;;;;;;0.00;0.00;;;;;;;17.34;nan;99128.47;4912307;29;20032;-78
2023/07/23 07:01:05;;;;;;;;;;;;;;;;;;;;;
2023/07/23 07:04:00;;;;;;;;;;;;;;;;;;;;;
2023/07/23 07:09:31;;;;;;;0.00;0.00;;;;;;;18.01;nan;99138.56;4939441;29;20043;-77
2023/07/23 07:12:12;;;;;;;;;;;;;;;;;;;;;
2023/07/23 07:15:28;;;;;;;;;;;;;;;;;;;;;
2023/07/23 07:21:31;;;;;;;0.00;0.00;;;;;;;18.60;nan;99137.97;4940324;29;20047;-80
2023/07/23 07:24:23;;;;;;;;;;;;;;;;;;;;;
2023/07/23 07:31:16;;;;;;;;;;;;;;;;;;;;;
2023/07/23 07:33:45;;;;;;;0.00;0.00;;;;;;;18.90;nan;99129.31;4808686;29;20047;-81
2023/07/23 07:36:33;;;;;;;0.00;0.00;;;;;;;18.61;nan;99150.63;4867799;29;20074;-80
2023/07/23 07:39:21;;;;;;;0.00;0.00;;;;;;;18.73;nan;99158.09;4858261;29;20065;-82
2023/07/23 07:42:13;;;;;;;;;;;;;;;;;;;;;
2023/07/23 07:45:12;;;;;;;0.00;0.00;;;;;;;18.92;nan;99160.22;4914718;29;20044;-83
2023/07/23 07:47:53;;;;;;;;;;;;;;;;;;;;;
2023/07/23 07:54:11;;;;;;;;;;;;;;;;;;;;;
2023/07/23 08:03:26;;;;;;;0.00;0.00;;;;;;;19.08;nan;99165.03;4910721;29;20107;-81
2023/07/23 08:05:59;;;;;;;0.00;0.00;;;;;;;;;;4915116;29;20115;-83
2023/07/23 08:08:58;;;;;;;;;;;;;;;;;;;;;
2023/07/23 08:14:43;;;;;;;0.00;0.00;;;;;;;19.05;nan;99174.03;4861037;29;20115;-74
2023/07/23 08:17:39;;;;;;;;;;;;;;;;;;;;;
2023/07/23 08:20:50;;;;;;;0.00;0.00;;;;;;;19.08;nan;99212.13;4905621;29;20039;-75
2023/07/23 08:23:54;;;;;;;;;;;;;;;;;;;;;
2023/07/23 08:26:30;;;;;;;0.00;0.00;;;;;;;19.15;nan;99170.75;4905511;29;20040;-73
2023/07/23 08:29:19;;;;;;;0.00;0.00;;;;;;;19.05;nan;99174.03;4919064;29;20032;-78
2023/07/23 08:31:49;;;;;;;0.00;0.00;;;;;;;19.05;nan;99190.66;4908022;29;20111;-75
2023/07/23 08:34:25;;;;;;;0.00;0.00;;;;;;;19.07;nan;99210.50;4920350;29;20032;-75
2023/07/23 08:36:58;;;;;;;0.00;0.00;;;;;;;19.16;nan;99191.78;4905559;29;20032;-76
2023/07/23 08:39:42;;;;;;;0.00;0.00;;;;;;;19.33;nan;99191.47;4887097;29;20024;-76
2023/07/23 08:42:33;;;;;;;0.00;0.00;;;;;;;19.60;nan;99210.34;4950599;29;20101;-76
2023/07/23 08:45:16;;;;;;;0.00;0.00;;;;;;;19.68;nan;99212.97;4944539;28;20038;-75
2023/07/23 08:47:45;;;;;;;0.00;0.00;;;;;;;;;;4943060;29;20378;-76
2023/07/23 08:50:13;;;;;;;0.00;0.00;;;;;;;19.45;nan;99193.34;4951497;28;20505;-76
2023/07/23 08:52:41;;;;;;;0.00;0.00;;;;;;;19.56;nan;99193.63;4946226;29;20059;-76
2023/07/23 08:55:10;;;;;;;0.00;0.00;;;;;;;19.77;nan;99203.63;4929100;29;20027;-76
2023/07/23 08:57:38;;;;;;;0.00;0.00;;;;;;;19.98;nan;99195.88;4947250;28;20038;-76
2023/07/23 09:00:06;;;;;;;0.00;0.00;;;;;;;20.62;nan;99209.63;4922700;29;20506;-75
2023/07/23 09:02:33;;;;;;;0.00;0.00;;;;;;;;;;4932063;29;20110;-75
2023/07/23 09:04:58;;;;;;;0.00;0.00;;;;;;;21.26;nan;99231.59;4935243;29;20028;-76
2023/07/23 09:07:24;;;;;;;0.00;0.00;;;;;;;21.41;nan;99232.69;4948926;29;20027;-75
2023/07/23 09:09:50;;;;;;;0.00;0.00;;;;;;;21.54;nan;99230.59;4935818;29;20039;-76
2023/07/23 09:12:16;;;;;;;0.00;0.00;;;;;;;21.38;nan;99216.75;4948698;28;20695;-77
2023/07/23 09:14:44;;;;;;;0.00;0.00;;;;;;;21.35;nan;99221.06;4940790;29;20027;-76
2023/07/23 09:17:17;;;;;;;0.00;0.00;;;;;;;;;;4950971;29;20126;-74
2023/07/23 09:19:45;;;;;;;0.00;0.00;;;;;;;;;;4939192;28;20027;-75
2023/07/23 09:22:13;;;;;;;0.00;0.00;;;;;;;;;;4921669;29;20118;-77
2023/07/23 09:24:38;;;;;;;0.00;0.00;;;;;;;22.23;nan;99244.47;4935340;29;20062;-77
2023/07/23 09:27:09;;;;;;;0.00;0.00;;;;;;;22.19;nan;99226.09;4941636;28;20027;-77
2023/07/23 09:29:35;;;;;;;0.00;0.00;;;;;;;22.18;nan;99211.41;4951909;29;20086;-76
2023/07/23 09:32:01;;;;;;;0.00;0.00;;;;;;;;;;4944803;28;20036;-77
2023/07/23 09:34:26;;;;;;;0.00;0.00;;;;;;;;;;4949872;28;20090;-75
2023/07/23 09:36:53;;;;;;;0.00;0.00;;;;;;;22.39;nan;99236.00;4940436;28;20031;-76
2023/07/23 09:39:19;;;;;;;0.00;0.00;;;;;;;22.41;nan;99221.69;4938485;28;20032;-76
2023/07/23 09:41:51;;;;;;;0.00;0.00;;;;;;;22.43;nan;99241.63;4934550;29;20035;-75
2023/07/23 09:44:17;;;;;;;0.00;0.00;;;;;;;22.82;nan;99239.41;4940366;29;20069;-74
2023/07/23 09:46:46;;;;;;;0.00;0.00;;;;;;;23.25;nan;99224.41;4931663;29;20044;-76
2023/07/23 09:49:13;;;;;;;0.00;0.00;;;;;;;23.70;nan;99231.66;4945413;29;20037;-76
2023/07/23 09:51:38;;;;;;;0.00;0.00;;;;;;;24.20;nan;99222.91;4932032;29;20031;-78
2023/07/23 09:54:06;;;;;;;0.00;0.00;;;;;;;24.26;nan;99231.75;4939015;29;20038;-76
2023/07/23 09:56:34;;;;;;;0.00;0.00;;;;;;;23.94;nan;99231.50;4945621;28;20082;-75
2023/07/23 09:59:02;;;;;;;0.00;0.00;;;;;;;23.87;nan;99238.63;4931305;29;20039;-75
2023/07/23 10:01:28;;;;;;;0.00;0.00;;;;;;;;;;4942253;29;20055;-79
2023/07/23 10:03:58;;;;;;;0.00;0.00;;;;;;;23.84;nan;99230.97;4923074;29;20097;-76
2023/07/23 10:06:24;;;;;;;0.00;0.00;;;;;;;23.70;nan;99247.59;4927476;29;22108;-75
2023/07/23 10:08:50;;;;;;;0.00;0.00;;;;;;;23.10;nan;99232.59;4923879;29;20363;-77
2023/07/23 10:11:20;;;;;;;0.00;0.00;;;;;;;22.39;nan;99235.19;4949393;29;20023;-76
2023/07/23 10:14:03;;;;;;;0.00;0.00;;;;;;;22.06;nan;99217.94;4932435;29;20386;-75
2023/07/23 10:16:35;;;;;;;0.00;0.00;;;;;;;22.02;nan;99244.94;4937629;28;20139;-76
2023/07/23 10:19:04;;;;;;;0.00;0.00;;;;;;;22.24;nan;99211.84;4945703;28;20034;-76
2023/07/23 10:21:32;;;;;;;0.00;0.00;;;;;;;22.66;nan;99238.75;4932367;29;20031;-76
2023/07/23 10:23:58;;;;;;;0.00;0.00;;;;;;;;;;4934995;29;20094;-75
2023/07/23 10:26:29;;;;;;;0.00;0.00;;;;;;;23.13;nan;99226.28;4931187;29;20413;-76
2023/07/23 10:29:18;;;;;;;0.00;0.00;;;;;;;23.45;nan;99231.41;4933030;28;20023;-73
2023/07/23 10:31:44;;;;;;;0.00;0.00;;;;;;;;;;4942314;29;20027;-73
2023/07/23 10:34:21;;;;;;;0.00;0.00;;;;;;;24.19;nan;99240.84;4949520;29;20406;-75
2023/07/23 10:37:19;;;;;;;0.00;0.00;;;;;;;24.76;nan;99255.66;4949122;29;20382;-78
2023/07/23 10:39:47;;;;;;;0.00;0.00;;;;;;;24.81;nan;99247.69;4924756;29;20030;-77
2023/07/23 10:42:28;;;;;;;0.00;0.00;;;;;;;24.98;nan;99248.16;4924026;29;20086;-75
2023/07/23 10:45:21;;;;;;;0.00;0.00;;;;;;;24.68;nan;99235.25;4943579;29;20574;-75
2023/07/23 10:47:57;;;;;;;0.00;0.00;;;;;;;24.33;nan;99219.84;4921554;29;20042;-73
2023/07/23 10:50:29;;;;;;;0.00;0.00;;;;;;;24.38;nan;99227.84;4947946;29;20023;-76
2023/07/23 10:53:04;;;;;;;0.00;0.00;;;;;;;24.60;nan;99230.78;4947162;29;20023;-77
2023/07/23 10:55:39;;;;;;;0.00;0.00;;;;;;;25.07;nan;99245.78;4924156;29;20028;-76
2023/07/23 10:58:13;;;;;;;0.00;0.00;;;;;;;24.85;nan;99222.53;4944019;28;20023;-76
2023/07/23 11:00:43;;;;;;;;;;;;;;;24.70;nan;99244.03;4934341;29;20044;-77
2023/07/23 11:03:13;;;;;;;0.00;0.00;;;;;;;24.40;nan;99214.28;4933745;29;19918;-76
2023/07/23 11:05:40;;;;;;;0.00;0.00;;;;;;;24.91;nan;99238.56;4927134;29;20047;-75
2023/07/23 11:08:26;;;;;;;0.00;0.00;;;;;;;26.09;nan;99225.25;4926598;29;20031;-75
2023/07/23 11:10:55;;;;;;;0.00;0.00;;;;;;;26.72;nan;99227.59;4934629;29;20019;-74
2023/07/23 11:13:25;;;;;;;0.00;0.00;;;;;;;27.75;nan;99219.09;4941706;29;20024;-74
2023/07/23 11:15:50;;;;;;;0.00;0.00;;;;;;;29.49;nan;99210.44;4915508;28;20478;-75
2023/07/23 11:18:20;;;;;;;0.00;0.00;;;;;;;30.97;nan;99228.41;4934168;29;20246;-75
2023/07/23 11:20:56;;;;;;;0.00;0.00;;;;;;;31.62;nan;99215.78;4940501;29;20027;-74
2023/07/23 11:23:25;;;;;;;0.00;0.00;;;;;;;29.99;nan;99215.31;4933002;29;20066;-75
2023/07/23 11:25:51;;;;;;;0.00;0.00;;;;;;;27.74;nan;99223.88;4940075;28;20167;-74
2023/07/23 11:28:18;;;;;;;0.00;0.00;;;;;;;26.59;nan;99214.00;4919970;29;20043;-75
2023/07/23 11:30:43;;;;;;;0.00;0.00;;;;;;;26.29;nan;99234.06;4940790;28;20027;-74
2023/07/23 11:33:11;;;;;;;0.00;0.00;;;;;;;26.55;nan;99210.41;4937893;29;20031;-74
2023/07/23 11:35:37;;;;;;;0.00;0.00;;;;;;;27.06;nan;99222.25;4935796;28;20091;-74
2023/07/23 11:38:02;;;;;;;0.00;0.00;;;;;;;;;;4934983;28;20028;-74
2023/07/23 11:40:28;;;;;;;0.00;0.00;;;;;;;29.42;nan;99220.59;4943605;29;20675;-74
2023/07/23 11:42:53;;;;;;;0.00;0.00;;;;;;;;;;4938877;29;20051;-73
2023/07/23 11:45:20;;;;;;;0.00;0.00;;;;;;;28.42;nan;99242.22;4952921;28;20450;-75
2023/07/23 11:47:57;;;;;;;0.00;0.00;;;;;;;27.34;nan;99226.94;4951035;29;20019;-76
2023/07/23 11:50:24;;;;;;;0.00;0.00;;;;;;;26.62;nan;99207.56;4925203;29;20032;-75
2023/07/23 11:52:51;;;;;;;0.00;0.00;;;;;;;26.57;nan;99219.19;4945953;29;20482;-76
2023/07/23 11:55:20;;;;;;;0.00;0.00;;;;;;;26.67;nan;99228.00;4933789;29;20038;-75
2023/07/23 11:57:50;;;;;;;0.00;0.00;;;;;;;27.22;nan;99221.78;4949009;29;20500;-75
2023/07/23 12:00:24;;;;;;;0.00;0.00;;;;;;;28.86;nan;99211.66;4944941;29;20033;-76
2023/07/23 12:10:25;;;;;;;0.00;0.00;;;;;;;32.95;nan;99245.53;4843278;29;20036;-75
2023/07/23 12:12:51;;;;;;;0.00;0.00;;;;;;;34.80;nan;99233.56;4844418;29;20042;-74
2023/07/23 12:15:17;;;;;;;0.00;0.00;;;;;;;35.89;nan;99244.41;4839637;29;20044;-74
2023/07/23 12:17:46;;;;;;;0.00;0.00;;;;;;;37.28;nan;99242.47;4948040;29;20106;-75
2023/07/23 12:20:17;;;;;;;0.00;0.00;;;;;;;35.79;nan;99229.38;4945739;29;20055;-75
2023/07/23 12:23:09;;;;;;;0.00;0.00;;;;;;;34.99;nan;99225.16;4947763;28;20153;-76
2023/07/23 12:25:34;;;;;;;0.00;0.00;;;;;;;33.45;nan;99218.56;4924873;29;20031;-75
2023/07/23 12:28:00;;;;;;;0.00;0.00;;;;;;;34.18;nan;99206.47;4950613;29;20035;-76
2023/07/23 12:30:25;;;;;;;0.00;0.00;;;;;;;35.83;nan;99230.03;4930919;29;20086;-73
2023/07/23 12:32:50;;;;;;;0.00;0.00;;;;;;;33.97;nan;99232.75;4941395;29;20028;-75
2023/07/23 12:35:16;;;;;;;0.00;0.00;;;;;;;32.00;nan;99206.78;4931333;29;20390;-76
2023/07/23 12:37:41;;;;;;;0.00;0.00;;;;;;;30.62;nan;99213.81;4942737;28;20062;-74
2023/07/23 12:40:08;;;;;;;0.00;0.00;;;;;;;28.79;nan;99218.16;4931822;29;20524;-77
2023/07/23 12:42:44;;;;;;;0.00;0.00;;;;;;;27.56;nan;99204.38;4925662;29;20055;-76
2023/07/23 12:45:10;;;;;;;0.00;0.00;;;;;;;;;;4941937;28;20425;-76
2023/07/23 12:47:35;;;;;;;0.00;0.00;;;;;;;29.68;nan;99163.88;4933309;29;20118;-75
2023/07/23 12:50:01;;;;;;;0.00;0.00;;;;;;;31.66;nan;99217.28;4942579;29;20118;-74
2023/07/23 12:52:27;;;;;;;0.00;0.00;;;;;;;32.00;nan;99223.75;4921682;29;20894;-75
2023/07/23 12:54:53;;;;;;;0.00;0.00;;;;;;;31.39;nan;99217.47;4924313;29;21102;-73
2023/07/23 12:57:20;;;;;;;0.00;0.00;;;;;;;29.96;nan;99221.78;4930745;29;20036;-75
2023/07/23 12:59:45;;;;;;;0.00;0.00;;;;;;;30.74;nan;99220.84;4950683;28;20035;-72
2023/07/23 13:02:11;;;;;;;0.00;0.00;;;;;;;31.33;nan;99207.94;4917564;29;20074;-75
2023/07/23 13:04:37;;;;;;;0.00;0.00;;;;;;;30.66;nan;99225.81;4950434;28;20060;-74
2023/07/23 13:07:03;;;;;;;0.00;0.00;;;;;;;29.75;nan;99201.16;4941887;29;20031;-75
2023/07/23 13:09:28;;;;;;;0.00;0.00;;;;;;;28.71;nan;99205.41;4944233;28;20042;-75
2023/07/23 13:11:54;;;;;;;0.00;0.00;;;;;;;28.09;nan;99174.28;4939626;28;20030;-77
2023/07/23 13:14:26;;;;;;;0.00;0.00;;;;;;;27.67;nan;99188.25;4923279;29;20134;-75
2023/07/23 13:16:52;;;;;;;0.00;0.00;;;;;;;27.20;nan;99224.19;4939051;29;20090;-76
2023/07/23 13:19:23;;;;;;;0.00;0.00;;;;;;;26.85;nan;99197.09;4945877;29;20031;-75
2023/07/23 13:21:49;;;;;;;0.00;0.00;;;;;;;26.97;nan;99202.25;4944670;29;20035;-75
2023/07/23 13:24:14;;;;;;;0.00;0.00;;;;;;;27.72;nan;99209.47;4941275;29;20079;-74
2023/07/23 13:26:40;;;;;;;0.00;0.00;;;;;;;28.07;nan;99212.44;4942031;28;20031;-74
2023/07/23 13:29:06;;;;;;;0.00;0.00;;;;;;;;;;4942714;28;20031;-74